sensor_id;sensor_type;location;lat;lon;timestamp;P1;durP1;ratioP1;P2;durP2;ratioP2
9823;SDS011;4951;50.778;7.196;2023-03-20T00:01:28;27.40;;;24.10;;
9823;SDS011;4951;50.778;7.196;2023-03-20T00:04:14;29.17;;;25.17;;
9823;SDS011;4951;50.778;7.196;2023-03-20T00:06:47;30.00;;;26.13;;
9823;SDS011;4951;50.778;7.196;2023-03-20T00:09:23;34.93;;;27.70;;
9823;SDS011;4951;50.778;7.196;2023-03-20T00:12:01;30.20;;;24.20;;
9823;SDS011;4951;50.778;7.196;2023-03-20T00:14:35;32.50;;;28.87;;
9823;SDS011;4951;50.778;7.196;2023-03-20T00:17:09;31.80;;;28.40;;
9823;SDS011;4951;50.778;7.196;2023-03-20T00:19:42;30.73;;;27.37;;
9823;SDS011;4951;50.778;7.196;2023-03-20T00:22:09;31.03;;;27.63;;
9823;SDS011;4951;50.778;7.196;2023-03-20T00:24:37;31.63;;;28.23;;
9823;SDS011;4951;50.778;7.196;2023-03-20T00:27:08;34.43;;;30.30;;
9823;SDS011;4951;50.778;7.196;2023-03-20T00:29:47;33.90;;;29.33;;
9823;SDS011;4951;50.778;7.196;2023-03-20T00:32:15;34.03;;;28.40;;
9823;SDS011;4951;50.778;7.196;2023-03-20T00:34:43;32.67;;;27.80;;
9823;SDS011;4951;50.778;7.196;2023-03-20T00:37:13;32.73;;;29.17;;
9823;SDS011;4951;50.778;7.196;2023-03-20T00:39:48;31.20;;;27.80;;
9823;SDS011;4951;50.778;7.196;2023-03-20T00:42:20;31.80;;;28.40;;
9823;SDS011;4951;50.778;7.196;2023-03-20T00:44:49;34.93;;;30.77;;
9823;SDS011;4951;50.778;7.196;2023-03-20T00:47:32;32.87;;;29.23;;
9823;SDS011;4951;50.778;7.196;2023-03-20T00:50:05;30.37;;;27.10;;
9823;SDS011;4951;50.778;7.196;2023-03-20T00:52:39;35.13;;;30.27;;
9823;SDS011;4951;50.778;7.196;2023-03-20T00:55:10;37.73;;;32.00;;
9823;SDS011;4951;50.778;7.196;2023-03-20T00:57:59;32.67;;;27.30;;
9823;SDS011;4951;50.778;7.196;2023-03-20T01:00:37;30.70;;;27.33;;
9823;SDS011;4951;50.778;7.196;2023-03-20T01:03:18;33.27;;;28.97;;
9823;SDS011;4951;50.778;7.196;2023-03-20T01:05:50;32.73;;;27.73;;
9823;SDS011;4951;50.778;7.196;2023-03-20T01:08:20;32.17;;;27.20;;
9823;SDS011;4951;50.778;7.196;2023-03-20T01:10:54;31.97;;;27.93;;
9823;SDS011;4951;50.778;7.196;2023-03-20T01:13:27;32.77;;;28.63;;
9823;SDS011;4951;50.778;7.196;2023-03-20T01:16:27;36.87;;;30.00;;
9823;SDS011;4951;50.778;7.196;2023-03-20T01:19:04;33.20;;;29.60;;
9823;SDS011;4951;50.778;7.196;2023-03-20T01:21:38;37.87;;;32.30;;
9823;SDS011;4951;50.778;7.196;2023-03-20T01:24:23;35.03;;;29.87;;
9823;SDS011;4951;50.778;7.196;2023-03-20T01:26:58;38.13;;;31.83;;
9823;SDS011;4951;50.778;7.196;2023-03-20T01:29:36;40.07;;;32.63;;
9823;SDS011;4951;50.778;7.196;2023-03-20T01:32:14;35.83;;;30.13;;
9823;SDS011;4951;50.778;7.196;2023-03-20T01:35:11;42.00;;;31.07;;
9823;SDS011;4951;50.778;7.196;2023-03-20T01:37:47;39.27;;;32.60;;
9823;SDS011;4951;50.778;7.196;2023-03-20T01:40:39;39.97;;;32.27;;
9823;SDS011;4951;50.778;7.196;2023-03-20T01:43:15;35.33;;;30.47;;
9823;SDS011;4951;50.778;7.196;2023-03-20T01:46:01;40.57;;;32.77;;
9823;SDS011;4951;50.778;7.196;2023-03-20T01:51:31;38.17;;;31.43;;
9823;SDS011;4951;50.778;7.196;2023-03-20T01:54:08;41.07;;;32.80;;
9823;SDS011;4951;50.778;7.196;2023-03-20T01:56:58;43.10;;;34.07;;
9823;SDS011;4951;50.778;7.196;2023-03-20T01:59:48;37.17;;;30.10;;
9823;SDS011;4951;50.778;7.196;2023-03-20T02:02:52;40.80;;;31.60;;
9823;SDS011;4951;50.778;7.196;2023-03-20T02:05:39;37.47;;;29.73;;
9823;SDS011;4951;50.778;7.196;2023-03-20T02:08:23;39.00;;;30.03;;
9823;SDS011;4951;50.778;7.196;2023-03-20T02:11:06;40.87;;;31.97;;
9823;SDS011;4951;50.778;7.196;2023-03-20T02:13:34;38.27;;;32.00;;
9823;SDS011;4951;50.778;7.196;2023-03-20T02:16:03;48.07;;;35.50;;
9823;SDS011;4951;50.778;7.196;2023-03-20T02:18:50;38.10;;;30.77;;
9823;SDS011;4951;50.778;7.196;2023-03-20T02:25:03;35.30;;;30.40;;
9823;SDS011;4951;50.778;7.196;2023-03-20T02:28:08;39.83;;;30.67;;
9823;SDS011;4951;50.778;7.196;2023-03-20T02:31:04;32.47;;;27.37;;
9823;SDS011;4951;50.778;7.196;2023-03-20T02:40:19;33.97;;;28.90;;
9823;SDS011;4951;50.778;7.196;2023-03-20T02:43:17;40.13;;;31.90;;
9823;SDS011;4951;50.778;7.196;2023-03-20T02:46:19;35.77;;;30.30;;
9823;SDS011;4951;50.778;7.196;2023-03-20T02:48:58;34.23;;;28.30;;
9823;SDS011;4951;50.778;7.196;2023-03-20T02:51:32;40.37;;;31.20;;
9823;SDS011;4951;50.778;7.196;2023-03-20T02:56:57;36.63;;;30.00;;
9823;SDS011;4951;50.778;7.196;2023-03-20T02:59:30;35.47;;;29.67;;
9823;SDS011;4951;50.778;7.196;2023-03-20T03:02:11;33.03;;;28.13;;
9823;SDS011;4951;50.778;7.196;2023-03-20T03:04:53;35.37;;;30.27;;
9823;SDS011;4951;50.778;7.196;2023-03-20T03:07:33;37.17;;;31.07;;
9823;SDS011;4951;50.778;7.196;2023-03-20T03:10:07;40.13;;;30.90;;
9823;SDS011;4951;50.778;7.196;2023-03-20T03:12:39;36.23;;;30.20;;
9823;SDS011;4951;50.778;7.196;2023-03-20T03:15:30;36.23;;;27.80;;
9823;SDS011;4951;50.778;7.196;2023-03-20T03:18:01;43.67;;;33.63;;
9823;SDS011;4951;50.778;7.196;2023-03-20T03:20:34;33.27;;;28.37;;
9823;SDS011;4951;50.778;7.196;2023-03-20T03:23:09;43.37;;;33.97;;
9823;SDS011;4951;50.778;7.196;2023-03-20T03:25:47;31.90;;;27.53;;
9823;SDS011;4951;50.778;7.196;2023-03-20T03:28:21;37.17;;;30.53;;
9823;SDS011;4951;50.778;7.196;2023-03-20T03:30:53;35.40;;;28.87;;
9823;SDS011;4951;50.778;7.196;2023-03-20T03:33:38;37.10;;;29.23;;
9823;SDS011;4951;50.778;7.196;2023-03-20T03:36:11;30.97;;;25.10;;
9823;SDS011;4951;50.778;7.196;2023-03-20T03:38:48;31.00;;;27.17;;
9823;SDS011;4951;50.778;7.196;2023-03-20T03:41:25;37.07;;;29.60;;
9823;SDS011;4951;50.778;7.196;2023-03-20T03:44:01;39.23;;;31.73;;
9823;SDS011;4951;50.778;7.196;2023-03-20T03:46:42;32.60;;;27.07;;
9823;SDS011;4951;50.778;7.196;2023-03-20T03:49:28;41.60;;;32.57;;
9823;SDS011;4951;50.778;7.196;2023-03-20T03:52:08;38.03;;;30.50;;
9823;SDS011;4951;50.778;7.196;2023-03-20T03:54:53;42.50;;;32.07;;
9823;SDS011;4951;50.778;7.196;2023-03-20T03:58:19;46.57;;;33.97;;
9823;SDS011;4951;50.778;7.196;2023-03-20T04:00:54;43.27;;;32.87;;
9823;SDS011;4951;50.778;7.196;2023-03-20T04:03:41;35.00;;;29.13;;
9823;SDS011;4951;50.778;7.196;2023-03-20T04:06:13;37.43;;;29.77;;
9823;SDS011;4951;50.778;7.196;2023-03-20T04:08:53;34.10;;;26.83;;
9823;SDS011;4951;50.778;7.196;2023-03-20T04:11:26;47.60;;;32.87;;
9823;SDS011;4951;50.778;7.196;2023-03-20T04:16:40;40.13;;;32.03;;
9823;SDS011;4951;50.778;7.196;2023-03-20T04:19:19;43.20;;;32.80;;
9823;SDS011;4951;50.778;7.196;2023-03-20T04:21:47;39.83;;;30.90;;
9823;SDS011;4951;50.778;7.196;2023-03-20T04:24:14;57.70;;;37.80;;
9823;SDS011;4951;50.778;7.196;2023-03-20T04:26:42;49.73;;;33.67;;
9823;SDS011;4951;50.778;7.196;2023-03-20T04:29:32;43.07;;;32.47;;
9823;SDS011;4951;50.778;7.196;2023-03-20T04:32:23;45.63;;;30.43;;
9823;SDS011;4951;50.778;7.196;2023-03-20T04:35:16;32.63;;;27.27;;
9823;SDS011;4951;50.778;7.196;2023-03-20T04:38:04;41.03;;;31.07;;
9823;SDS011;4951;50.778;7.196;2023-03-20T04:40:34;35.37;;;27.37;;
9823;SDS011;4951;50.778;7.196;2023-03-20T04:43:01;34.33;;;26.73;;
9823;SDS011;4951;50.778;7.196;2023-03-20T04:45:33;35.40;;;27.23;;
9823;SDS011;4951;50.778;7.196;2023-03-20T04:48:02;36.10;;;26.93;;
9823;SDS011;4951;50.778;7.196;2023-03-20T04:51:02;32.17;;;24.93;;
9823;SDS011;4951;50.778;7.196;2023-03-20T04:53:57;30.57;;;22.67;;
9823;SDS011;4951;50.778;7.196;2023-03-20T04:56:38;29.63;;;21.93;;
9823;SDS011;4951;50.778;7.196;2023-03-20T04:59:13;26.87;;;21.40;;
9823;SDS011;4951;50.778;7.196;2023-03-20T05:01:44;28.97;;;22.00;;
9823;SDS011;4951;50.778;7.196;2023-03-20T05:04:12;27.93;;;22.13;;
9823;SDS011;4951;50.778;7.196;2023-03-20T05:06:51;29.10;;;22.10;;
9823;SDS011;4951;50.778;7.196;2023-03-20T05:09:21;26.13;;;20.13;;
9823;SDS011;4951;50.778;7.196;2023-03-20T05:11:51;30.33;;;21.73;;
9823;SDS011;4951;50.778;7.196;2023-03-20T05:14:37;29.63;;;22.93;;
9823;SDS011;4951;50.778;7.196;2023-03-20T05:17:33;29.50;;;22.77;;
9823;SDS011;4951;50.778;7.196;2023-03-20T05:20:15;27.27;;;21.10;;
9823;SDS011;4951;50.778;7.196;2023-03-20T05:23:06;27.30;;;21.47;;
9823;SDS011;4951;50.778;7.196;2023-03-20T05:26:14;30.33;;;22.90;;
9823;SDS011;4951;50.778;7.196;2023-03-20T05:29:04;30.27;;;23.57;;
9823;SDS011;4951;50.778;7.196;2023-03-20T05:31:55;33.47;;;23.87;;
9823;SDS011;4951;50.778;7.196;2023-03-20T05:34:45;32.60;;;23.73;;
9823;SDS011;4951;50.778;7.196;2023-03-20T05:37:29;32.20;;;23.90;;
9823;SDS011;4951;50.778;7.196;2023-03-20T05:41:03;29.63;;;22.33;;
9823;SDS011;4951;50.778;7.196;2023-03-20T05:44:01;31.50;;;23.13;;
9823;SDS011;4951;50.778;7.196;2023-03-20T05:46:53;30.33;;;21.73;;
9823;SDS011;4951;50.778;7.196;2023-03-20T05:49:52;29.17;;;21.27;;
9823;SDS011;4951;50.778;7.196;2023-03-20T05:52:45;30.27;;;23.53;;
9823;SDS011;4951;50.778;7.196;2023-03-20T05:55:45;30.17;;;22.83;;
9823;SDS011;4951;50.778;7.196;2023-03-20T05:58:50;28.73;;;21.63;;
9823;SDS011;4951;50.778;7.196;2023-03-20T06:02:05;29.70;;;21.77;;
9823;SDS011;4951;50.778;7.196;2023-03-20T06:04:49;25.77;;;20.70;;
9823;SDS011;4951;50.778;7.196;2023-03-20T06:08:02;25.43;;;21.47;;
9823;SDS011;4951;50.778;7.196;2023-03-20T06:10:31;29.60;;;21.90;;
9823;SDS011;4951;50.778;7.196;2023-03-20T06:13:16;27.63;;;21.03;;
9823;SDS011;4951;50.778;7.196;2023-03-20T06:15:43;25.87;;;21.10;;
9823;SDS011;4951;50.778;7.196;2023-03-20T06:18:30;27.80;;;20.97;;
9823;SDS011;4951;50.778;7.196;2023-03-20T06:21:23;28.03;;;21.10;;
9823;SDS011;4951;50.778;7.196;2023-03-20T06:23:56;23.70;;;20.07;;
9823;SDS011;4951;50.778;7.196;2023-03-20T06:26:37;27.57;;;20.37;;
9823;SDS011;4951;50.778;7.196;2023-03-20T06:29:26;24.97;;;20.63;;
9823;SDS011;4951;50.778;7.196;2023-03-20T06:32:15;25.73;;;20.30;;
9823;SDS011;4951;50.778;7.196;2023-03-20T06:34:44;26.33;;;19.47;;
9823;SDS011;4951;50.778;7.196;2023-03-20T06:37:24;26.53;;;20.40;;
9823;SDS011;4951;50.778;7.196;2023-03-20T06:40:06;29.57;;;23.17;;
9823;SDS011;4951;50.778;7.196;2023-03-20T06:42:48;24.80;;;20.27;;
9823;SDS011;4951;50.778;7.196;2023-03-20T06:45:19;28.30;;;21.47;;
9823;SDS011;4951;50.778;7.196;2023-03-20T06:48:00;30.10;;;21.77;;
9823;SDS011;4951;50.778;7.196;2023-03-20T06:50:44;26.10;;;21.73;;
9823;SDS011;4951;50.778;7.196;2023-03-20T06:53:15;30.43;;;22.37;;
9823;SDS011;4951;50.778;7.196;2023-03-20T06:56:25;27.37;;;21.23;;
9823;SDS011;4951;50.778;7.196;2023-03-20T06:59:13;27.03;;;21.13;;
9823;SDS011;4951;50.778;7.196;2023-03-20T07:01:42;26.00;;;22.00;;
9823;SDS011;4951;50.778;7.196;2023-03-20T07:04:19;29.77;;;22.23;;
9823;SDS011;4951;50.778;7.196;2023-03-20T07:06:53;27.93;;;22.57;;
9823;SDS011;4951;50.778;7.196;2023-03-20T07:09:35;29.77;;;22.17;;
9823;SDS011;4951;50.778;7.196;2023-03-20T07:12:08;26.93;;;21.43;;
9823;SDS011;4951;50.778;7.196;2023-03-20T07:14:45;23.87;;;20.63;;
9823;SDS011;4951;50.778;7.196;2023-03-20T07:17:17;26.77;;;22.13;;
9823;SDS011;4951;50.778;7.196;2023-03-20T07:19:58;26.47;;;20.83;;
9823;SDS011;4951;50.778;7.196;2023-03-20T07:22:31;24.87;;;19.70;;
9823;SDS011;4951;50.778;7.196;2023-03-20T07:25:31;28.57;;;20.53;;
9823;SDS011;4951;50.778;7.196;2023-03-20T07:28:00;25.27;;;20.43;;
9823;SDS011;4951;50.778;7.196;2023-03-20T07:30:30;22.37;;;19.03;;
9823;SDS011;4951;50.778;7.196;2023-03-20T07:33:00;22.27;;;19.70;;
9823;SDS011;4951;50.778;7.196;2023-03-20T07:35:33;22.47;;;19.03;;
9823;SDS011;4951;50.778;7.196;2023-03-20T07:38:04;22.13;;;19.77;;
9823;SDS011;4951;50.778;7.196;2023-03-20T07:41:13;21.77;;;18.97;;
9823;SDS011;4951;50.778;7.196;2023-03-20T07:43:49;19.87;;;17.23;;
9823;SDS011;4951;50.778;7.196;2023-03-20T07:46:40;23.17;;;17.93;;
9823;SDS011;4951;50.778;7.196;2023-03-20T07:49:17;19.70;;;16.27;;
9823;SDS011;4951;50.778;7.196;2023-03-20T07:51:52;17.67;;;15.77;;
9823;SDS011;4951;50.778;7.196;2023-03-20T07:54:22;16.97;;;14.77;;
9823;SDS011;4951;50.778;7.196;2023-03-20T07:56:59;16.53;;;14.77;;
9823;SDS011;4951;50.778;7.196;2023-03-20T07:59:35;17.60;;;15.13;;
9823;SDS011;4951;50.778;7.196;2023-03-20T08:02:13;18.17;;;14.57;;
9823;SDS011;4951;50.778;7.196;2023-03-20T08:04:53;16.17;;;14.47;;
9823;SDS011;4951;50.778;7.196;2023-03-20T08:07:43;15.47;;;13.80;;
9823;SDS011;4951;50.778;7.196;2023-03-20T08:10:15;16.40;;;14.57;;
9823;SDS011;4951;50.778;7.196;2023-03-20T08:12:50;17.77;;;14.37;;
9823;SDS011;4951;50.778;7.196;2023-03-20T08:15:17;15.50;;;13.37;;
9823;SDS011;4951;50.778;7.196;2023-03-20T08:17:45;15.73;;;14.00;;
9823;SDS011;4951;50.778;7.196;2023-03-20T08:20:17;14.43;;;12.27;;
9823;SDS011;4951;50.778;7.196;2023-03-20T08:22:46;14.90;;;13.37;;
9823;SDS011;4951;50.778;7.196;2023-03-20T08:25:17;13.40;;;11.97;;
9823;SDS011;4951;50.778;7.196;2023-03-20T08:27:45;11.40;;;10.13;;
9823;SDS011;4951;50.778;7.196;2023-03-20T08:30:16;12.37;;;10.73;;
9823;SDS011;4951;50.778;7.196;2023-03-20T08:32:43;12.87;;;9.60;;
9823;SDS011;4951;50.778;7.196;2023-03-20T08:35:17;13.07;;;10.03;;
9823;SDS011;4951;50.778;7.196;2023-03-20T08:38:01;12.17;;;9.93;;
9823;SDS011;4951;50.778;7.196;2023-03-20T08:40:45;11.10;;;9.90;;
9823;SDS011;4951;50.778;7.196;2023-03-20T08:43:13;13.33;;;11.50;;
9823;SDS011;4951;50.778;7.196;2023-03-20T08:45:47;12.60;;;10.67;;
9823;SDS011;4951;50.778;7.196;2023-03-20T08:48:22;11.93;;;10.63;;
9823;SDS011;4951;50.778;7.196;2023-03-20T08:50:57;13.20;;;11.17;;
9823;SDS011;4951;50.778;7.196;2023-03-20T08:53:28;13.90;;;10.90;;
9823;SDS011;4951;50.778;7.196;2023-03-20T08:56:01;14.20;;;12.33;;
9823;SDS011;4951;50.778;7.196;2023-03-20T08:58:39;12.87;;;11.27;;
9823;SDS011;4951;50.778;7.196;2023-03-20T09:01:12;12.17;;;10.83;;
9823;SDS011;4951;50.778;7.196;2023-03-20T09:03:43;15.07;;;11.87;;
9823;SDS011;4951;50.778;7.196;2023-03-20T09:06:11;12.67;;;10.50;;
9823;SDS011;4951;50.778;7.196;2023-03-20T09:08:43;12.53;;;11.23;;
9823;SDS011;4951;50.778;7.196;2023-03-20T09:11:13;9.93;;;8.93;;
9823;SDS011;4951;50.778;7.196;2023-03-20T09:13:43;13.87;;;9.70;;
9823;SDS011;4951;50.778;7.196;2023-03-20T09:16:13;8.70;;;7.83;;
9823;SDS011;4951;50.778;7.196;2023-03-20T09:18:48;9.53;;;7.73;;
9823;SDS011;4951;50.778;7.196;2023-03-20T09:21:19;9.77;;;7.60;;
9823;SDS011;4951;50.778;7.196;2023-03-20T09:23:46;7.33;;;6.63;;
9823;SDS011;4951;50.778;7.196;2023-03-20T09:26:16;7.73;;;6.53;;
9823;SDS011;4951;50.778;7.196;2023-03-20T09:28:45;10.27;;;6.80;;
9823;SDS011;4951;50.778;7.196;2023-03-20T09:31:26;9.43;;;6.30;;
9823;SDS011;4951;50.778;7.196;2023-03-20T09:33:58;8.00;;;5.90;;
9823;SDS011;4951;50.778;7.196;2023-03-20T09:36:35;6.67;;;5.47;;
9823;SDS011;4951;50.778;7.196;2023-03-20T09:39:07;7.70;;;5.50;;
9823;SDS011;4951;50.778;7.196;2023-03-20T09:41:54;8.43;;;5.80;;
9823;SDS011;4951;50.778;7.196;2023-03-20T09:44:40;6.57;;;4.70;;
9823;SDS011;4951;50.778;7.196;2023-03-20T09:47:48;7.97;;;6.03;;
9823;SDS011;4951;50.778;7.196;2023-03-20T09:50:25;8.30;;;4.93;;
9823;SDS011;4951;50.778;7.196;2023-03-20T09:53:21;6.83;;;5.50;;
9823;SDS011;4951;50.778;7.196;2023-03-20T09:55:54;7.93;;;5.07;;
9823;SDS011;4951;50.778;7.196;2023-03-20T09:58:47;5.50;;;4.73;;
9823;SDS011;4951;50.778;7.196;2023-03-20T10:01:34;6.90;;;4.90;;
9823;SDS011;4951;50.778;7.196;2023-03-20T10:04:19;9.43;;;4.77;;
9823;SDS011;4951;50.778;7.196;2023-03-20T10:06:56;7.30;;;4.67;;
9823;SDS011;4951;50.778;7.196;2023-03-20T10:09:38;5.93;;;4.17;;
9823;SDS011;4951;50.778;7.196;2023-03-20T10:12:18;4.87;;;4.27;;
9823;SDS011;4951;50.778;7.196;2023-03-20T10:15:26;7.77;;;4.10;;
9823;SDS011;4951;50.778;7.196;2023-03-20T10:18:20;6.70;;;4.47;;
9823;SDS011;4951;50.778;7.196;2023-03-20T10:20:55;5.70;;;4.47;;
9823;SDS011;4951;50.778;7.196;2023-03-20T10:23:45;7.03;;;4.77;;
9823;SDS011;4951;50.778;7.196;2023-03-20T10:26:34;8.00;;;4.83;;
9823;SDS011;4951;50.778;7.196;2023-03-20T10:29:06;7.03;;;4.47;;
9823;SDS011;4951;50.778;7.196;2023-03-20T10:32:06;6.23;;;4.83;;
9823;SDS011;4951;50.778;7.196;2023-03-20T10:34:43;6.00;;;4.50;;
9823;SDS011;4951;50.778;7.196;2023-03-20T10:37:35;5.33;;;4.60;;
9823;SDS011;4951;50.778;7.196;2023-03-20T10:43:13;6.27;;;4.80;;
9823;SDS011;4951;50.778;7.196;2023-03-20T10:46:20;7.13;;;4.50;;
9823;SDS011;4951;50.778;7.196;2023-03-20T10:48:55;7.63;;;4.90;;
9823;SDS011;4951;50.778;7.196;2023-03-20T10:51:40;7.13;;;4.50;;
9823;SDS011;4951;50.778;7.196;2023-03-20T10:54:22;6.57;;;4.83;;
9823;SDS011;4951;50.778;7.196;2023-03-20T10:57:12;6.20;;;4.47;;
9823;SDS011;4951;50.778;7.196;2023-03-20T10:59:46;6.47;;;4.23;;
9823;SDS011;4951;50.778;7.196;2023-03-20T11:02:37;4.77;;;4.27;;
9823;SDS011;4951;50.778;7.196;2023-03-20T11:05:18;6.27;;;4.80;;
9823;SDS011;4951;50.778;7.196;2023-03-20T11:08:03;7.23;;;4.80;;
9823;SDS011;4951;50.778;7.196;2023-03-20T11:14:17;6.60;;;4.63;;
9823;SDS011;4951;50.778;7.196;2023-03-20T11:16:49;5.70;;;4.60;;
9823;SDS011;4951;50.778;7.196;2023-03-20T11:22:32;5.83;;;5.23;;
9823;SDS011;4951;50.778;7.196;2023-03-20T11:25:27;6.27;;;4.67;;
9823;SDS011;4951;50.778;7.196;2023-03-20T11:28:32;6.97;;;4.97;;
9823;SDS011;4951;50.778;7.196;2023-03-20T11:31:02;7.30;;;4.50;;
9823;SDS011;4951;50.778;7.196;2023-03-20T11:33:32;5.40;;;4.23;;
9823;SDS011;4951;50.778;7.196;2023-03-20T11:36:10;5.27;;;4.47;;
9823;SDS011;4951;50.778;7.196;2023-03-20T11:38:42;7.40;;;4.37;;
9823;SDS011;4951;50.778;7.196;2023-03-20T11:41:15;5.77;;;4.43;;
9823;SDS011;4951;50.778;7.196;2023-03-20T11:43:45;7.60;;;4.70;;
9823;SDS011;4951;50.778;7.196;2023-03-20T11:46:13;6.50;;;4.50;;
9823;SDS011;4951;50.778;7.196;2023-03-20T11:48:41;7.40;;;4.57;;
9823;SDS011;4951;50.778;7.196;2023-03-20T11:51:10;5.50;;;4.20;;
9823;SDS011;4951;50.778;7.196;2023-03-20T11:53:51;5.20;;;4.53;;
9823;SDS011;4951;50.778;7.196;2023-03-20T11:56:28;4.70;;;4.07;;
9823;SDS011;4951;50.778;7.196;2023-03-20T11:59:00;5.80;;;4.23;;
9823;SDS011;4951;50.778;7.196;2023-03-20T12:01:36;6.53;;;4.70;;
9823;SDS011;4951;50.778;7.196;2023-03-20T12:04:09;6.33;;;4.60;;
9823;SDS011;4951;50.778;7.196;2023-03-20T12:06:46;9.30;;;4.53;;
9823;SDS011;4951;50.778;7.196;2023-03-20T12:09:30;8.33;;;4.33;;
9823;SDS011;4951;50.778;7.196;2023-03-20T12:12:04;4.03;;;3.50;;
9823;SDS011;4951;50.778;7.196;2023-03-20T12:14:42;5.17;;;3.53;;
9823;SDS011;4951;50.778;7.196;2023-03-20T12:20:02;6.13;;;3.30;;
9823;SDS011;4951;50.778;7.196;2023-03-20T12:22:36;4.70;;;3.27;;
9823;SDS011;4951;50.778;7.196;2023-03-20T12:25:15;4.20;;;3.23;;
9823;SDS011;4951;50.778;7.196;2023-03-20T12:27:49;4.27;;;2.97;;
9823;SDS011;4951;50.778;7.196;2023-03-20T12:30:27;7.43;;;3.00;;
9823;SDS011;4951;50.778;7.196;2023-03-20T12:33:06;5.70;;;3.23;;
9823;SDS011;4951;50.778;7.196;2023-03-20T12:35:42;5.10;;;3.03;;
9823;SDS011;4951;50.778;7.196;2023-03-20T12:38:19;4.53;;;3.30;;
9823;SDS011;4951;50.778;7.196;2023-03-20T12:41:21;5.30;;;3.00;;
9823;SDS011;4951;50.778;7.196;2023-03-20T12:46:59;5.13;;;2.80;;
9823;SDS011;4951;50.778;7.196;2023-03-20T12:50:04;6.67;;;2.93;;
9823;SDS011;4951;50.778;7.196;2023-03-20T12:52:42;4.20;;;2.20;;
9823;SDS011;4951;50.778;7.196;2023-03-20T12:55:40;5.53;;;2.87;;
9823;SDS011;4951;50.778;7.196;2023-03-20T12:58:28;4.10;;;2.23;;
9823;SDS011;4951;50.778;7.196;2023-03-20T13:04:38;5.20;;;2.20;;
9823;SDS011;4951;50.778;7.196;2023-03-20T13:07:39;5.53;;;2.30;;
9823;SDS011;4951;50.778;7.196;2023-03-20T13:10:18;3.83;;;2.00;;
9823;SDS011;4951;50.778;7.196;2023-03-20T13:13:05;3.70;;;1.90;;
9823;SDS011;4951;50.778;7.196;2023-03-20T13:15:57;4.37;;;2.10;;
9823;SDS011;4951;50.778;7.196;2023-03-20T13:18:56;7.27;;;2.13;;
9823;SDS011;4951;50.778;7.196;2023-03-20T13:21:56;4.87;;;1.93;;
9823;SDS011;4951;50.778;7.196;2023-03-20T13:24:41;4.60;;;2.00;;
9823;SDS011;4951;50.778;7.196;2023-03-20T13:27:16;4.37;;;2.00;;
9823;SDS011;4951;50.778;7.196;2023-03-20T13:30:03;6.00;;;2.10;;
9823;SDS011;4951;50.778;7.196;2023-03-20T13:32:51;6.23;;;2.10;;
9823;SDS011;4951;50.778;7.196;2023-03-20T13:36:20;4.80;;;1.70;;
9823;SDS011;4951;50.778;7.196;2023-03-20T13:39:41;6.40;;;2.20;;
9823;SDS011;4951;50.778;7.196;2023-03-20T13:42:12;4.00;;;1.93;;
9823;SDS011;4951;50.778;7.196;2023-03-20T13:45:12;5.03;;;2.03;;
9823;SDS011;4951;50.778;7.196;2023-03-20T13:48:41;4.80;;;2.20;;
9823;SDS011;4951;50.778;7.196;2023-03-20T13:52:14;5.33;;;2.00;;
9823;SDS011;4951;50.778;7.196;2023-03-20T13:55:22;4.50;;;2.10;;
9823;SDS011;4951;50.778;7.196;2023-03-20T13:58:24;4.37;;;2.20;;
9823;SDS011;4951;50.778;7.196;2023-03-20T14:01:20;4.40;;;2.17;;
9823;SDS011;4951;50.778;7.196;2023-03-20T14:03:57;7.30;;;2.30;;
9823;SDS011;4951;50.778;7.196;2023-03-20T14:06:42;4.93;;;2.47;;
9823;SDS011;4951;50.778;7.196;2023-03-20T14:09:27;4.57;;;2.27;;
9823;SDS011;4951;50.778;7.196;2023-03-20T14:12:08;5.27;;;2.30;;
9823;SDS011;4951;50.778;7.196;2023-03-20T14:14:58;2.97;;;1.90;;
9823;SDS011;4951;50.778;7.196;2023-03-20T14:22:52;5.93;;;2.13;;
9823;SDS011;4951;50.778;7.196;2023-03-20T14:28:23;4.40;;;1.77;;
9823;SDS011;4951;50.778;7.196;2023-03-20T14:34:19;5.13;;;2.00;;
9823;SDS011;4951;50.778;7.196;2023-03-20T14:37:52;5.90;;;2.30;;
9823;SDS011;4951;50.778;7.196;2023-03-20T14:41:03;8.33;;;2.33;;
9823;SDS011;4951;50.778;7.196;2023-03-20T14:47:38;5.10;;;2.33;;
9823;SDS011;4951;50.778;7.196;2023-03-20T14:50:29;5.90;;;2.17;;
9823;SDS011;4951;50.778;7.196;2023-03-20T14:53:34;4.37;;;1.93;;
9823;SDS011;4951;50.778;7.196;2023-03-20T14:56:13;5.07;;;2.13;;
9823;SDS011;4951;50.778;7.196;2023-03-20T14:58:51;4.20;;;2.07;;
9823;SDS011;4951;50.778;7.196;2023-03-20T15:04:25;4.53;;;2.00;;
9823;SDS011;4951;50.778;7.196;2023-03-20T15:06:58;6.27;;;2.77;;
9823;SDS011;4951;50.778;7.196;2023-03-20T15:09:29;5.13;;;1.93;;
9823;SDS011;4951;50.778;7.196;2023-03-20T15:12:01;6.40;;;2.30;;
9823;SDS011;4951;50.778;7.196;2023-03-20T15:15:27;8.27;;;2.70;;
9823;SDS011;4951;50.778;7.196;2023-03-20T15:18:05;6.83;;;2.30;;
9823;SDS011;4951;50.778;7.196;2023-03-20T15:20:47;8.83;;;2.37;;
9823;SDS011;4951;50.778;7.196;2023-03-20T15:23:50;5.67;;;2.40;;
9823;SDS011;4951;50.778;7.196;2023-03-20T15:26:24;5.00;;;2.23;;
9823;SDS011;4951;50.778;7.196;2023-03-20T15:29:03;7.13;;;2.40;;
9823;SDS011;4951;50.778;7.196;2023-03-20T15:31:46;5.00;;;2.53;;
9823;SDS011;4951;50.778;7.196;2023-03-20T15:34:44;4.30;;;2.00;;
9823;SDS011;4951;50.778;7.196;2023-03-20T15:37:16;6.20;;;2.60;;
9823;SDS011;4951;50.778;7.196;2023-03-20T15:40:25;5.53;;;2.30;;
9823;SDS011;4951;50.778;7.196;2023-03-20T15:43:10;8.30;;;2.60;;
9823;SDS011;4951;50.778;7.196;2023-03-20T15:45:55;5.73;;;2.53;;
9823;SDS011;4951;50.778;7.196;2023-03-20T15:48:34;4.63;;;2.50;;
9823;SDS011;4951;50.778;7.196;2023-03-20T15:54:47;6.53;;;2.30;;
9823;SDS011;4951;50.778;7.196;2023-03-20T15:57:34;3.73;;;2.30;;
9823;SDS011;4951;50.778;7.196;2023-03-20T16:01:44;5.87;;;2.47;;
9823;SDS011;4951;50.778;7.196;2023-03-20T16:04:15;5.17;;;2.03;;
9823;SDS011;4951;50.778;7.196;2023-03-20T16:10:10;6.07;;;2.53;;
9823;SDS011;4951;50.778;7.196;2023-03-20T16:12:58;5.90;;;2.80;;
9823;SDS011;4951;50.778;7.196;2023-03-20T16:16:18;6.30;;;2.60;;
9823;SDS011;4951;50.778;7.196;2023-03-20T16:19:11;6.00;;;2.60;;
9823;SDS011;4951;50.778;7.196;2023-03-20T16:21:46;6.13;;;2.10;;
9823;SDS011;4951;50.778;7.196;2023-03-20T16:27:48;8.07;;;2.90;;
9823;SDS011;4951;50.778;7.196;2023-03-20T16:30:24;5.10;;;2.30;;
9823;SDS011;4951;50.778;7.196;2023-03-20T16:33:11;5.40;;;2.50;;
9823;SDS011;4951;50.778;7.196;2023-03-20T16:35:48;9.53;;;3.20;;
9823;SDS011;4951;50.778;7.196;2023-03-20T16:38:23;6.50;;;2.70;;
9823;SDS011;4951;50.778;7.196;2023-03-20T16:41:24;8.43;;;2.63;;
9823;SDS011;4951;50.778;7.196;2023-03-20T16:48:39;5.77;;;2.57;;
9823;SDS011;4951;50.778;7.196;2023-03-20T16:51:59;6.47;;;2.93;;
9823;SDS011;4951;50.778;7.196;2023-03-20T16:54:42;6.93;;;2.73;;
9823;SDS011;4951;50.778;7.196;2023-03-20T16:57:47;6.67;;;2.57;;
9823;SDS011;4951;50.778;7.196;2023-03-20T17:04:12;5.57;;;2.93;;
9823;SDS011;4951;50.778;7.196;2023-03-20T17:07:05;6.40;;;2.60;;
9823;SDS011;4951;50.778;7.196;2023-03-20T17:09:36;6.73;;;2.50;;
9823;SDS011;4951;50.778;7.196;2023-03-20T17:12:47;6.50;;;2.77;;
9823;SDS011;4951;50.778;7.196;2023-03-20T17:16:12;6.10;;;2.87;;
9823;SDS011;4951;50.778;7.196;2023-03-20T17:19:13;7.90;;;2.63;;
9823;SDS011;4951;50.778;7.196;2023-03-20T17:22:10;9.23;;;2.80;;
9823;SDS011;4951;50.778;7.196;2023-03-20T17:24:40;7.40;;;2.97;;
9823;SDS011;4951;50.778;7.196;2023-03-20T17:27:31;4.43;;;2.70;;
9823;SDS011;4951;50.778;7.196;2023-03-20T17:30:16;8.20;;;2.60;;
9823;SDS011;4951;50.778;7.196;2023-03-20T17:32:45;6.23;;;2.60;;
9823;SDS011;4951;50.778;7.196;2023-03-20T17:35:28;7.07;;;2.70;;
9823;SDS011;4951;50.778;7.196;2023-03-20T17:38:14;8.67;;;3.03;;
9823;SDS011;4951;50.778;7.196;2023-03-20T17:40:53;6.00;;;2.30;;
9823;SDS011;4951;50.778;7.196;2023-03-20T17:43:47;6.37;;;2.90;;
9823;SDS011;4951;50.778;7.196;2023-03-20T17:47:07;8.20;;;3.10;;
9823;SDS011;4951;50.778;7.196;2023-03-20T17:50:19;9.20;;;3.10;;